createdAt,value
2022-11-21T00:03:06.612Z,99.90
2022-11-21T00:13:13.805Z,99.90
2022-11-21T00:23:15.452Z,99.90
2022-11-21T00:33:17.446Z,99.90
2022-11-21T00:53:21.068Z,99.90
2022-11-21T01:03:22.680Z,99.90
2022-11-21T01:23:27.386Z,99.90
2022-11-21T01:33:28.997Z,99.90
2022-11-21T01:43:30.674Z,99.90
2022-11-21T01:53:33.887Z,99.90
2022-11-21T02:03:38.164Z,99.90
2022-11-21T02:13:39.811Z,99.90
2022-11-21T02:23:59.153Z,99.90
2022-11-21T02:34:02.034Z,99.90
2022-11-21T02:44:09.182Z,99.90
2022-11-21T02:54:10.807Z,99.90
2022-11-21T03:04:12.433Z,99.90
2022-11-21T03:14:14.072Z,99.90
2022-11-21T03:24:15.672Z,99.90
2022-11-21T03:34:17.304Z,99.90
2022-11-21T03:44:18.924Z,99.90
2022-11-21T03:54:20.520Z,99.70
2022-11-21T04:04:22.212Z,99.20
2022-11-21T04:34:28.924Z,98.70
2022-11-21T04:44:30.929Z,98.60
2022-11-21T04:54:32.671Z,98.50
2022-11-21T05:04:34.310Z,98.10
2022-11-21T05:14:35.938Z,97.90
2022-11-21T05:24:37.746Z,97.80
2022-11-21T05:34:39.372Z,97.80
2022-11-21T05:54:46.070Z,97.90
2022-11-21T06:04:47.881Z,98.10
2022-11-21T06:14:49.497Z,98.10
2022-11-21T06:24:51.115Z,98.20
2022-11-21T06:34:53.013Z,98.20
2022-11-21T06:44:54.629Z,98.30
2022-11-21T06:54:56.238Z,98.20
2022-11-21T07:04:57.936Z,98.40
2022-11-21T07:14:59.759Z,98.50
2022-11-21T07:35:03.805Z,98.90
2022-11-21T07:45:05.785Z,99.10
2022-11-21T07:55:08.005Z,99.50
2022-11-21T08:05:09.777Z,99.80
2022-11-21T08:15:11.767Z,99.80
2022-11-21T08:35:15.615Z,99.60
2022-11-21T08:45:17.258Z,99.60
2022-11-21T08:55:18.989Z,99.50
2022-11-21T09:05:20.688Z,99.70
2022-11-21T09:15:40.879Z,99.80
2022-11-21T09:25:43.217Z,99.70
2022-11-21T09:35:45.284Z,99.70
2022-11-21T09:45:50.088Z,99.70
2022-11-21T09:56:06.171Z,99.70
2022-11-21T10:06:20.457Z,99.30
2022-11-21T10:17:00.339Z,99.20
2022-11-21T10:27:26.047Z,98.90
2022-11-21T10:38:08.408Z,98.70
2022-11-21T10:48:10.048Z,98.90
2022-11-21T10:58:19.427Z,98.80
2022-11-21T11:08:22.091Z,98.90
2022-11-21T11:18:24.137Z,99.30
2022-11-21T11:28:36.344Z,99.00
2022-11-21T11:38:38.033Z,99.30
2022-11-21T11:48:56.623Z,98.90
2022-11-21T11:59:17.741Z,99.10
2022-11-21T12:09:34.650Z,97.60
2022-11-21T12:19:38.132Z,96.10
2022-11-21T12:30:02.021Z,93.90
2022-11-21T12:40:12.803Z,93.00
2022-11-21T12:50:46.398Z,93.20
2022-11-21T13:01:21.733Z,93.20
2022-11-21T13:12:01.173Z,93.00
2022-11-21T13:22:02.851Z,92.50
2022-11-21T13:32:43.728Z,91.60
2022-11-21T13:43:33.107Z,90.70
2022-11-21T13:53:50.050Z,90.70
2022-11-21T14:04:15.741Z,89.80
2022-11-21T14:14:49.704Z,89.70
2022-11-21T14:24:53.491Z,90.10
2022-11-21T14:35:08.606Z,91.00
2022-11-21T14:45:20.792Z,91.50
2022-11-21T14:55:31.558Z,92.00
2022-11-21T15:06:00.623Z,92.80
2022-11-21T15:15:57.381Z,93.10
2022-11-21T15:26:01.414Z,93.60
2022-11-21T15:36:13.952Z,93.80
2022-11-21T15:46:34.670Z,94.50
2022-11-21T15:56:36.470Z,94.80
2022-11-21T16:06:38.079Z,95.10
2022-11-21T16:22:23.529Z,95.70
2022-11-21T16:32:25.952Z,95.90
2022-11-21T16:42:27.660Z,96.10
2022-11-21T16:52:33.498Z,96.40
2022-11-21T17:02:37.225Z,96.80
2022-11-21T17:12:40.817Z,97.10
2022-11-21T17:22:42.520Z,97.30
2022-11-21T17:32:44.136Z,97.40
2022-11-21T17:42:47.061Z,97.50
2022-11-21T17:52:50.147Z,97.50
2022-11-21T18:02:51.969Z,97.90
2022-11-21T18:12:53.706Z,97.60
2022-11-21T18:22:55.461Z,97.90
2022-11-21T18:32:57.192Z,97.80
2022-11-21T18:42:58.829Z,97.80
2022-11-21T18:53:00.447Z,97.80
2022-11-21T19:03:02.059Z,97.80
2022-11-21T19:13:04.132Z,97.90
2022-11-21T19:23:06.291Z,98.00
2022-11-21T19:33:08.089Z,98.20
2022-11-21T19:43:09.728Z,98.30
2022-11-21T19:53:11.524Z,98.00
2022-11-21T20:03:13.201Z,98.10
2022-11-21T20:13:14.819Z,98.30
2022-11-21T20:23:16.458Z,98.00
2022-11-21T20:33:18.544Z,98.10
2022-11-21T20:43:20.182Z,98.30
2022-11-21T20:53:51.392Z,98.30
2022-11-21T21:03:43.724Z,98.60
2022-11-21T21:13:47.140Z,98.70
2022-11-21T21:24:03.282Z,98.60
2022-11-21T21:44:07.277Z,98.90
2022-11-21T21:54:18.610Z,99.00
2022-11-21T22:04:20.322Z,98.90
2022-11-21T22:14:21.968Z,99.00
2022-11-21T22:24:25.815Z,98.90
2022-11-21T22:34:28.681Z,98.80
2022-11-21T22:44:30.866Z,98.80
2022-11-21T22:54:32.704Z,98.60
2022-11-21T23:04:34.740Z,98.70
2022-11-21T23:14:36.748Z,98.60
2022-11-21T23:24:38.344Z,98.60
2022-11-21T23:34:39.952Z,98.40
2022-11-21T23:44:41.578Z,98.40
2022-11-21T23:54:43.205Z,98.40
